sensor_id;sensor_type;location;lat;lon;timestamp;P1;durP1;ratioP1;P2;durP2;ratioP2
19213;SDS011;9741;51.020;5.304;2023-06-24T00:01:19;3.53;;;2.22;;
19213;SDS011;9741;51.020;5.304;2023-06-24T00:03:49;2.85;;;1.70;;
19213;SDS011;9741;51.020;5.304;2023-06-24T00:06:18;4.00;;;2.22;;
19213;SDS011;9741;51.020;5.304;2023-06-24T00:08:45;9.48;;;2.28;;
19213;SDS011;9741;51.020;5.304;2023-06-24T00:11:12;2.72;;;2.47;;
19213;SDS011;9741;51.020;5.304;2023-06-24T00:13:40;1.70;;;1.60;;
19213;SDS011;9741;51.020;5.304;2023-06-24T00:16:07;3.47;;;2.55;;
19213;SDS011;9741;51.020;5.304;2023-06-24T00:18:35;2.50;;;1.60;;
19213;SDS011;9741;51.020;5.304;2023-06-24T00:21:07;4.10;;;3.03;;
19213;SDS011;9741;51.020;5.304;2023-06-24T00:23:34;3.95;;;1.85;;
19213;SDS011;9741;51.020;5.304;2023-06-24T00:26:01;2.83;;;1.58;;
19213;SDS011;9741;51.020;5.304;2023-06-24T00:28:28;2.90;;;2.58;;
19213;SDS011;9741;51.020;5.304;2023-06-24T00:30:56;1.70;;;1.40;;
19213;SDS011;9741;51.020;5.304;2023-06-24T00:33:23;1.50;;;1.40;;
19213;SDS011;9741;51.020;5.304;2023-06-24T00:35:50;8.52;;;2.00;;
19213;SDS011;9741;51.020;5.304;2023-06-24T00:38:18;1.65;;;1.25;;
19213;SDS011;9741;51.020;5.304;2023-06-24T00:40:45;2.17;;;1.42;;
19213;SDS011;9741;51.020;5.304;2023-06-24T00:43:12;2.20;;;2.00;;
19213;SDS011;9741;51.020;5.304;2023-06-24T00:45:39;2.00;;;1.75;;
19213;SDS011;9741;51.020;5.304;2023-06-24T00:48:07;1.95;;;1.80;;
19213;SDS011;9741;51.020;5.304;2023-06-24T00:50:34;4.65;;;2.30;;
19213;SDS011;9741;51.020;5.304;2023-06-24T00:53:02;1.90;;;1.65;;
19213;SDS011;9741;51.020;5.304;2023-06-24T00:55:30;3.08;;;2.15;;
19213;SDS011;9741;51.020;5.304;2023-06-24T00:57:57;2.35;;;1.80;;
19213;SDS011;9741;51.020;5.304;2023-06-24T01:00:26;3.28;;;1.63;;
19213;SDS011;9741;51.020;5.304;2023-06-24T01:02:53;2.65;;;1.98;;
19213;SDS011;9741;51.020;5.304;2023-06-24T01:05:22;2.58;;;2.38;;
19213;SDS011;9741;51.020;5.304;2023-06-24T01:07:50;2.10;;;1.58;;
19213;SDS011;9741;51.020;5.304;2023-06-24T01:10:21;1.65;;;1.42;;
19213;SDS011;9741;51.020;5.304;2023-06-24T01:12:50;1.73;;;1.48;;
19213;SDS011;9741;51.020;5.304;2023-06-24T01:15:17;1.77;;;1.35;;
19213;SDS011;9741;51.020;5.304;2023-06-24T01:17:49;1.90;;;1.75;;
19213;SDS011;9741;51.020;5.304;2023-06-24T01:20:23;1.88;;;1.45;;
19213;SDS011;9741;51.020;5.304;2023-06-24T01:23:11;2.03;;;1.75;;
19213;SDS011;9741;51.020;5.304;2023-06-24T01:26:20;1.27;;;1.17;;
19213;SDS011;9741;51.020;5.304;2023-06-24T01:32:03;1.88;;;1.65;;
19213;SDS011;9741;51.020;5.304;2023-06-24T01:34:34;2.65;;;1.70;;
19213;SDS011;9741;51.020;5.304;2023-06-24T01:37:08;1.17;;;1.08;;
19213;SDS011;9741;51.020;5.304;2023-06-24T01:39:40;2.15;;;1.70;;
19213;SDS011;9741;51.020;5.304;2023-06-24T01:42:13;1.50;;;1.27;;
19213;SDS011;9741;51.020;5.304;2023-06-24T01:44:43;1.48;;;1.38;;
19213;SDS011;9741;51.020;5.304;2023-06-24T01:47:15;1.40;;;1.30;;
19213;SDS011;9741;51.020;5.304;2023-06-24T01:49:46;2.30;;;1.98;;
19213;SDS011;9741;51.020;5.304;2023-06-24T01:52:13;1.42;;;1.27;;
19213;SDS011;9741;51.020;5.304;2023-06-24T01:54:42;3.17;;;1.58;;
19213;SDS011;9741;51.020;5.304;2023-06-24T01:57:11;2.28;;;1.63;;
19213;SDS011;9741;51.020;5.304;2023-06-24T01:59:39;3.03;;;1.73;;
19213;SDS011;9741;51.020;5.304;2023-06-24T02:02:09;2.35;;;1.85;;
19213;SDS011;9741;51.020;5.304;2023-06-24T02:04:39;2.78;;;1.88;;
19213;SDS011;9741;51.020;5.304;2023-06-24T02:07:07;1.88;;;1.33;;
19213;SDS011;9741;51.020;5.304;2023-06-24T02:09:35;1.48;;;1.33;;
19213;SDS011;9741;51.020;5.304;2023-06-24T02:12:08;0.93;;;0.80;;
19213;SDS011;9741;51.020;5.304;2023-06-24T02:14:36;1.23;;;1.08;;
19213;SDS011;9741;51.020;5.304;2023-06-24T02:17:05;1.75;;;1.63;;
19213;SDS011;9741;51.020;5.304;2023-06-24T02:19:34;2.17;;;1.98;;
19213;SDS011;9741;51.020;5.304;2023-06-24T02:22:04;2.33;;;1.83;;
19213;SDS011;9741;51.020;5.304;2023-06-24T02:24:34;3.90;;;1.83;;
19213;SDS011;9741;51.020;5.304;2023-06-24T02:27:02;2.67;;;1.92;;
19213;SDS011;9741;51.020;5.304;2023-06-24T02:29:31;2.13;;;1.52;;
19213;SDS011;9741;51.020;5.304;2023-06-24T02:32:00;1.30;;;1.20;;
19213;SDS011;9741;51.020;5.304;2023-06-24T02:34:27;1.20;;;1.10;;
19213;SDS011;9741;51.020;5.304;2023-06-24T02:36:55;1.92;;;1.48;;
19213;SDS011;9741;51.020;5.304;2023-06-24T02:39:23;2.30;;;1.95;;
19213;SDS011;9741;51.020;5.304;2023-06-24T02:41:50;1.67;;;1.40;;
19213;SDS011;9741;51.020;5.304;2023-06-24T02:44:17;1.50;;;1.08;;
19213;SDS011;9741;51.020;5.304;2023-06-24T02:46:44;1.85;;;1.00;;
19213;SDS011;9741;51.020;5.304;2023-06-24T02:49:14;1.80;;;1.65;;
19213;SDS011;9741;51.020;5.304;2023-06-24T02:51:43;2.10;;;1.77;;
19213;SDS011;9741;51.020;5.304;2023-06-24T02:54:11;1.00;;;0.95;;
19213;SDS011;9741;51.020;5.304;2023-06-24T02:56:40;2.03;;;1.33;;
19213;SDS011;9741;51.020;5.304;2023-06-24T02:59:10;4.57;;;1.98;;
19213;SDS011;9741;51.020;5.304;2023-06-24T03:01:37;1.35;;;1.25;;
19213;SDS011;9741;51.020;5.304;2023-06-24T03:04:10;2.80;;;1.77;;
19213;SDS011;9741;51.020;5.304;2023-06-24T03:06:37;1.30;;;1.10;;
19213;SDS011;9741;51.020;5.304;2023-06-24T03:09:04;1.98;;;1.63;;
19213;SDS011;9741;51.020;5.304;2023-06-24T03:11:41;2.70;;;1.58;;
19213;SDS011;9741;51.020;5.304;2023-06-24T03:14:08;2.35;;;2.10;;
19213;SDS011;9741;51.020;5.304;2023-06-24T03:16:35;1.92;;;1.58;;
19213;SDS011;9741;51.020;5.304;2023-06-24T03:19:03;2.58;;;1.98;;
19213;SDS011;9741;51.020;5.304;2023-06-24T03:21:30;2.55;;;2.22;;
19213;SDS011;9741;51.020;5.304;2023-06-24T03:23:57;1.20;;;1.05;;
19213;SDS011;9741;51.020;5.304;2023-06-24T03:26:25;4.00;;;1.35;;
19213;SDS011;9741;51.020;5.304;2023-06-24T03:28:58;1.38;;;1.17;;
19213;SDS011;9741;51.020;5.304;2023-06-24T03:31:26;5.50;;;1.90;;
19213;SDS011;9741;51.020;5.304;2023-06-24T03:33:53;1.07;;;1.07;;
19213;SDS011;9741;51.020;5.304;2023-06-24T03:36:20;1.48;;;1.20;;
19213;SDS011;9741;51.020;5.304;2023-06-24T03:38:49;1.65;;;1.17;;
19213;SDS011;9741;51.020;5.304;2023-06-24T03:41:16;1.43;;;1.03;;
19213;SDS011;9741;51.020;5.304;2023-06-24T03:43:43;3.50;;;2.03;;
19213;SDS011;9741;51.020;5.304;2023-06-24T03:46:12;1.90;;;1.67;;
19213;SDS011;9741;51.020;5.304;2023-06-24T03:48:39;1.17;;;1.00;;
19213;SDS011;9741;51.020;5.304;2023-06-24T03:51:06;1.23;;;1.13;;
19213;SDS011;9741;51.020;5.304;2023-06-24T03:53:33;2.97;;;1.77;;
19213;SDS011;9741;51.020;5.304;2023-06-24T03:56:03;1.55;;;1.33;;
19213;SDS011;9741;51.020;5.304;2023-06-24T03:58:31;1.80;;;1.70;;
19213;SDS011;9741;51.020;5.304;2023-06-24T04:00:58;1.70;;;0.90;;
19213;SDS011;9741;51.020;5.304;2023-06-24T04:03:28;0.93;;;0.88;;
19213;SDS011;9741;51.020;5.304;2023-06-24T04:05:55;1.40;;;1.30;;
19213;SDS011;9741;51.020;5.304;2023-06-24T04:08:22;1.90;;;1.50;;
19213;SDS011;9741;51.020;5.304;2023-06-24T04:10:54;0.98;;;0.88;;
19213;SDS011;9741;51.020;5.304;2023-06-24T04:13:21;2.17;;;1.85;;
19213;SDS011;9741;51.020;5.304;2023-06-24T04:15:48;2.30;;;2.10;;
19213;SDS011;9741;51.020;5.304;2023-06-24T04:18:15;2.30;;;2.08;;
19213;SDS011;9741;51.020;5.304;2023-06-24T04:20:44;2.53;;;2.17;;
19213;SDS011;9741;51.020;5.304;2023-06-24T04:23:12;2.97;;;1.70;;
19213;SDS011;9741;51.020;5.304;2023-06-24T04:25:39;2.40;;;2.17;;
19213;SDS011;9741;51.020;5.304;2023-06-24T04:28:07;3.35;;;2.70;;
19213;SDS011;9741;51.020;5.304;2023-06-24T04:30:34;3.80;;;2.20;;
19213;SDS011;9741;51.020;5.304;2023-06-24T04:33:03;2.63;;;1.95;;
19213;SDS011;9741;51.020;5.304;2023-06-24T04:35:30;3.08;;;2.00;;
19213;SDS011;9741;51.020;5.304;2023-06-24T04:37:59;2.22;;;1.88;;
19213;SDS011;9741;51.020;5.304;2023-06-24T04:40:26;3.50;;;2.10;;
19213;SDS011;9741;51.020;5.304;2023-06-24T04:42:53;2.92;;;2.42;;
19213;SDS011;9741;51.020;5.304;2023-06-24T04:45:20;2.13;;;1.95;;
19213;SDS011;9741;51.020;5.304;2023-06-24T04:47:47;3.67;;;2.70;;
19213;SDS011;9741;51.020;5.304;2023-06-24T04:50:14;4.55;;;2.92;;
19213;SDS011;9741;51.020;5.304;2023-06-24T04:52:41;3.15;;;2.85;;
19213;SDS011;9741;51.020;5.304;2023-06-24T04:55:11;2.67;;;1.95;;
19213;SDS011;9741;51.020;5.304;2023-06-24T04:57:38;2.70;;;2.40;;
19213;SDS011;9741;51.020;5.304;2023-06-24T05:00:08;5.05;;;2.58;;
19213;SDS011;9741;51.020;5.304;2023-06-24T05:02:36;5.47;;;2.65;;
19213;SDS011;9741;51.020;5.304;2023-06-24T05:05:03;1.98;;;1.63;;
19213;SDS011;9741;51.020;5.304;2023-06-24T05:07:30;1.95;;;1.75;;
19213;SDS011;9741;51.020;5.304;2023-06-24T05:09:57;6.57;;;2.80;;
19213;SDS011;9741;51.020;5.304;2023-06-24T05:12:27;2.47;;;2.22;;
19213;SDS011;9741;51.020;5.304;2023-06-24T05:14:54;2.33;;;2.00;;
19213;SDS011;9741;51.020;5.304;2023-06-24T05:17:21;1.98;;;1.80;;
19213;SDS011;9741;51.020;5.304;2023-06-24T05:19:48;3.13;;;2.35;;
19213;SDS011;9741;51.020;5.304;2023-06-24T05:22:15;2.35;;;1.73;;
19213;SDS011;9741;51.020;5.304;2023-06-24T05:24:42;3.60;;;2.28;;
19213;SDS011;9741;51.020;5.304;2023-06-24T05:27:09;1.73;;;1.50;;
19213;SDS011;9741;51.020;5.304;2023-06-24T05:29:38;3.28;;;1.75;;
19213;SDS011;9741;51.020;5.304;2023-06-24T05:32:05;2.92;;;1.77;;
19213;SDS011;9741;51.020;5.304;2023-06-24T05:34:32;1.15;;;1.05;;
19213;SDS011;9741;51.020;5.304;2023-06-24T05:37:00;3.42;;;1.90;;
19213;SDS011;9741;51.020;5.304;2023-06-24T05:39:27;1.80;;;1.42;;
19213;SDS011;9741;51.020;5.304;2023-06-24T05:41:54;2.78;;;1.77;;
19213;SDS011;9741;51.020;5.304;2023-06-24T05:44:21;1.55;;;1.30;;
19213;SDS011;9741;51.020;5.304;2023-06-24T05:46:50;2.42;;;1.70;;
19213;SDS011;9741;51.020;5.304;2023-06-24T05:49:17;2.47;;;1.33;;
19213;SDS011;9741;51.020;5.304;2023-06-24T05:51:45;1.92;;;1.48;;
19213;SDS011;9741;51.020;5.304;2023-06-24T05:54:12;5.00;;;1.85;;
19213;SDS011;9741;51.020;5.304;2023-06-24T05:56:39;1.58;;;1.20;;
19213;SDS011;9741;51.020;5.304;2023-06-24T05:59:06;2.05;;;0.90;;
19213;SDS011;9741;51.020;5.304;2023-06-24T06:01:33;1.90;;;1.48;;
19213;SDS011;9741;51.020;5.304;2023-06-24T06:04:02;1.00;;;1.00;;
19213;SDS011;9741;51.020;5.304;2023-06-24T06:06:29;1.83;;;1.52;;
19213;SDS011;9741;51.020;5.304;2023-06-24T06:08:56;3.85;;;1.15;;
19213;SDS011;9741;51.020;5.304;2023-06-24T06:11:23;2.28;;;1.67;;
19213;SDS011;9741;51.020;5.304;2023-06-24T06:13:50;1.42;;;1.30;;
19213;SDS011;9741;51.020;5.304;2023-06-24T06:16:18;0.85;;;0.73;;
19213;SDS011;9741;51.020;5.304;2023-06-24T06:18:45;2.17;;;1.27;;
19213;SDS011;9741;51.020;5.304;2023-06-24T06:21:13;1.60;;;1.25;;
19213;SDS011;9741;51.020;5.304;2023-06-24T06:23:41;2.30;;;1.08;;
19213;SDS011;9741;51.020;5.304;2023-06-24T06:26:08;1.60;;;1.13;;
19213;SDS011;9741;51.020;5.304;2023-06-24T06:28:36;0.80;;;0.80;;
19213;SDS011;9741;51.020;5.304;2023-06-24T06:31:04;0.90;;;0.90;;
19213;SDS011;9741;51.020;5.304;2023-06-24T06:33:31;1.38;;;1.23;;
19213;SDS011;9741;51.020;5.304;2023-06-24T06:35:58;1.13;;;1.00;;
19213;SDS011;9741;51.020;5.304;2023-06-24T06:38:27;1.25;;;1.00;;
19213;SDS011;9741;51.020;5.304;2023-06-24T06:40:54;2.80;;;0.90;;
19213;SDS011;9741;51.020;5.304;2023-06-24T06:43:21;1.17;;;1.08;;
19213;SDS011;9741;51.020;5.304;2023-06-24T06:45:49;2.40;;;0.98;;
19213;SDS011;9741;51.020;5.304;2023-06-24T06:48:16;4.00;;;1.27;;
19213;SDS011;9741;51.020;5.304;2023-06-24T06:50:43;0.98;;;0.93;;
19213;SDS011;9741;51.020;5.304;2023-06-24T06:53:11;0.90;;;0.90;;
19213;SDS011;9741;51.020;5.304;2023-06-24T06:55:40;1.10;;;1.00;;
19213;SDS011;9741;51.020;5.304;2023-06-24T06:58:08;1.15;;;0.82;;
19213;SDS011;9741;51.020;5.304;2023-06-24T07:00:35;7.10;;;1.55;;
19213;SDS011;9741;51.020;5.304;2023-06-24T07:03:02;0.85;;;0.70;;
19213;SDS011;9741;51.020;5.304;2023-06-24T07:05:29;1.42;;;1.10;;
19213;SDS011;9741;51.020;5.304;2023-06-24T07:07:56;1.17;;;1.08;;
19213;SDS011;9741;51.020;5.304;2023-06-24T07:10:23;2.78;;;1.00;;
19213;SDS011;9741;51.020;5.304;2023-06-24T07:12:52;1.38;;;0.98;;
19213;SDS011;9741;51.020;5.304;2023-06-24T07:15:23;1.45;;;1.33;;
19213;SDS011;9741;51.020;5.304;2023-06-24T07:17:51;1.30;;;0.95;;
19213;SDS011;9741;51.020;5.304;2023-06-24T07:20:18;1.58;;;0.95;;
19213;SDS011;9741;51.020;5.304;2023-06-24T07:22:45;0.80;;;0.80;;
19213;SDS011;9741;51.020;5.304;2023-06-24T07:25:12;1.13;;;1.02;;
19213;SDS011;9741;51.020;5.304;2023-06-24T07:27:39;0.80;;;0.65;;
19213;SDS011;9741;51.020;5.304;2023-06-24T07:30:08;2.38;;;0.93;;
19213;SDS011;9741;51.020;5.304;2023-06-24T07:32:36;0.95;;;0.90;;
19213;SDS011;9741;51.020;5.304;2023-06-24T07:35:03;1.55;;;0.98;;
19213;SDS011;9741;51.020;5.304;2023-06-24T07:37:31;1.67;;;1.13;;
19213;SDS011;9741;51.020;5.304;2023-06-24T07:39:59;0.65;;;0.65;;
19213;SDS011;9741;51.020;5.304;2023-06-24T07:42:26;1.00;;;0.98;;
19213;SDS011;9741;51.020;5.304;2023-06-24T07:44:53;0.95;;;0.85;;
19213;SDS011;9741;51.020;5.304;2023-06-24T07:47:21;0.82;;;0.82;;
19213;SDS011;9741;51.020;5.304;2023-06-24T07:49:48;2.10;;;1.13;;
19213;SDS011;9741;51.020;5.304;2023-06-24T07:52:15;0.68;;;0.68;;
19213;SDS011;9741;51.020;5.304;2023-06-24T07:54:42;0.70;;;0.70;;
19213;SDS011;9741;51.020;5.304;2023-06-24T07:57:09;0.98;;;0.80;;
19213;SDS011;9741;51.020;5.304;2023-06-24T07:59:36;1.00;;;0.90;;
19213;SDS011;9741;51.020;5.304;2023-06-24T08:02:04;0.85;;;0.85;;
19213;SDS011;9741;51.020;5.304;2023-06-24T08:04:33;0.70;;;0.60;;
19213;SDS011;9741;51.020;5.304;2023-06-24T08:07:00;0.70;;;0.70;;
19213;SDS011;9741;51.020;5.304;2023-06-24T08:09:27;0.68;;;0.40;;
19213;SDS011;9741;51.020;5.304;2023-06-24T08:11:54;0.45;;;0.43;;
19213;SDS011;9741;51.020;5.304;2023-06-24T08:14:21;0.85;;;0.57;;
19213;SDS011;9741;51.020;5.304;2023-06-24T08:16:48;3.00;;;1.17;;
19213;SDS011;9741;51.020;5.304;2023-06-24T08:19:15;0.85;;;0.85;;
19213;SDS011;9741;51.020;5.304;2023-06-24T08:21:43;0.45;;;0.45;;
19213;SDS011;9741;51.020;5.304;2023-06-24T08:24:10;3.83;;;0.77;;
19213;SDS011;9741;51.020;5.304;2023-06-24T08:26:38;1.20;;;0.98;;
19213;SDS011;9741;51.020;5.304;2023-06-24T08:29:06;1.15;;;0.85;;
19213;SDS011;9741;51.020;5.304;2023-06-24T08:31:34;0.57;;;0.45;;
19213;SDS011;9741;51.020;5.304;2023-06-24T08:34:01;0.80;;;0.63;;
19213;SDS011;9741;51.020;5.304;2023-06-24T08:36:28;1.77;;;0.93;;
19213;SDS011;9741;51.020;5.304;2023-06-24T08:38:57;1.40;;;0.98;;
19213;SDS011;9741;51.020;5.304;2023-06-24T08:41:24;1.70;;;1.20;;
19213;SDS011;9741;51.020;5.304;2023-06-24T08:43:51;0.35;;;0.35;;
19213;SDS011;9741;51.020;5.304;2023-06-24T08:46:19;3.83;;;0.85;;
19213;SDS011;9741;51.020;5.304;2023-06-24T08:48:47;1.60;;;0.90;;
19213;SDS011;9741;51.020;5.304;2023-06-24T08:51:18;0.73;;;0.73;;
19213;SDS011;9741;51.020;5.304;2023-06-24T08:53:49;0.88;;;0.60;;
19213;SDS011;9741;51.020;5.304;2023-06-24T08:56:18;1.05;;;0.47;;
19213;SDS011;9741;51.020;5.304;2023-06-24T08:58:47;6.35;;;1.10;;
19213;SDS011;9741;51.020;5.304;2023-06-24T09:01:15;0.80;;;0.77;;
19213;SDS011;9741;51.020;5.304;2023-06-24T09:03:42;0.40;;;0.40;;
19213;SDS011;9741;51.020;5.304;2023-06-24T09:06:09;0.40;;;0.40;;
19213;SDS011;9741;51.020;5.304;2023-06-24T09:08:36;0.65;;;0.60;;
19213;SDS011;9741;51.020;5.304;2023-06-24T09:11:04;0.45;;;0.45;;
19213;SDS011;9741;51.020;5.304;2023-06-24T09:13:36;0.90;;;0.65;;
19213;SDS011;9741;51.020;5.304;2023-06-24T09:16:12;2.17;;;0.75;;
19213;SDS011;9741;51.020;5.304;2023-06-24T09:18:41;1.00;;;0.73;;
19213;SDS011;9741;51.020;5.304;2023-06-24T09:21:13;0.95;;;0.63;;
19213;SDS011;9741;51.020;5.304;2023-06-24T09:23:40;1.27;;;0.70;;
19213;SDS011;9741;51.020;5.304;2023-06-24T09:26:11;0.90;;;0.60;;
19213;SDS011;9741;51.020;5.304;2023-06-24T09:28:40;0.57;;;0.57;;
19213;SDS011;9741;51.020;5.304;2023-06-24T09:31:07;1.95;;;0.70;;
19213;SDS011;9741;51.020;5.304;2023-06-24T09:33:35;0.55;;;0.55;;
19213;SDS011;9741;51.020;5.304;2023-06-24T09:36:03;0.93;;;0.82;;
19213;SDS011;9741;51.020;5.304;2023-06-24T09:38:36;5.93;;;0.73;;
19213;SDS011;9741;51.020;5.304;2023-06-24T09:41:06;1.30;;;0.98;;
19213;SDS011;9741;51.020;5.304;2023-06-24T09:43:35;1.02;;;0.90;;
19213;SDS011;9741;51.020;5.304;2023-06-24T09:46:06;0.52;;;0.52;;
19213;SDS011;9741;51.020;5.304;2023-06-24T09:48:34;1.58;;;1.20;;
19213;SDS011;9741;51.020;5.304;2023-06-24T09:51:02;1.40;;;0.95;;
19213;SDS011;9741;51.020;5.304;2023-06-24T09:53:30;0.70;;;0.70;;
19213;SDS011;9741;51.020;5.304;2023-06-24T09:55:58;2.08;;;1.15;;
19213;SDS011;9741;51.020;5.304;2023-06-24T09:58:28;0.70;;;0.70;;
19213;SDS011;9741;51.020;5.304;2023-06-24T10:01:01;1.17;;;0.60;;
19213;SDS011;9741;51.020;5.304;2023-06-24T10:03:32;0.93;;;0.70;;
19213;SDS011;9741;51.020;5.304;2023-06-24T10:06:01;1.42;;;0.77;;
19213;SDS011;9741;51.020;5.304;2023-06-24T10:08:29;0.85;;;0.65;;
19213;SDS011;9741;51.020;5.304;2023-06-24T10:10:57;0.65;;;0.55;;
19213;SDS011;9741;51.020;5.304;2023-06-24T10:13:25;0.38;;;0.38;;
19213;SDS011;9741;51.020;5.304;2023-06-24T10:15:52;1.80;;;1.10;;
19213;SDS011;9741;51.020;5.304;2023-06-24T10:18:34;0.82;;;0.70;;
19213;SDS011;9741;51.020;5.304;2023-06-24T10:21:02;1.58;;;0.40;;
19213;SDS011;9741;51.020;5.304;2023-06-24T10:23:30;1.60;;;1.08;;
19213;SDS011;9741;51.020;5.304;2023-06-24T10:25:59;1.02;;;0.90;;
19213;SDS011;9741;51.020;5.304;2023-06-24T10:28:26;0.75;;;0.70;;
19213;SDS011;9741;51.020;5.304;2023-06-24T10:31:13;0.63;;;0.60;;
19213;SDS011;9741;51.020;5.304;2023-06-24T10:33:42;0.77;;;0.45;;
19213;SDS011;9741;51.020;5.304;2023-06-24T10:36:31;0.80;;;0.57;;
19213;SDS011;9741;51.020;5.304;2023-06-24T10:38:58;0.82;;;0.82;;
19213;SDS011;9741;51.020;5.304;2023-06-24T10:41:25;0.50;;;0.50;;
19213;SDS011;9741;51.020;5.304;2023-06-24T10:43:52;1.05;;;0.80;;
19213;SDS011;9741;51.020;5.304;2023-06-24T10:46:24;2.15;;;0.68;;
19213;SDS011;9741;51.020;5.304;2023-06-24T10:48:54;0.35;;;0.30;;
19213;SDS011;9741;51.020;5.304;2023-06-24T10:51:21;0.73;;;0.68;;
19213;SDS011;9741;51.020;5.304;2023-06-24T10:53:49;1.75;;;0.88;;
19213;SDS011;9741;51.020;5.304;2023-06-24T10:56:16;0.60;;;0.60;;
19213;SDS011;9741;51.020;5.304;2023-06-24T10:58:54;0.40;;;0.40;;
19213;SDS011;9741;51.020;5.304;2023-06-24T11:01:22;0.75;;;0.52;;
19213;SDS011;9741;51.020;5.304;2023-06-24T11:03:49;1.05;;;0.50;;
19213;SDS011;9741;51.020;5.304;2023-06-24T11:06:17;0.80;;;0.60;;
19213;SDS011;9741;51.020;5.304;2023-06-24T11:08:45;0.95;;;0.68;;
19213;SDS011;9741;51.020;5.304;2023-06-24T11:11:18;1.48;;;0.70;;
19213;SDS011;9741;51.020;5.304;2023-06-24T11:13:47;0.47;;;0.47;;
19213;SDS011;9741;51.020;5.304;2023-06-24T11:16:19;0.40;;;0.40;;
19213;SDS011;9741;51.020;5.304;2023-06-24T11:18:47;1.55;;;0.47;;
19213;SDS011;9741;51.020;5.304;2023-06-24T11:21:14;0.32;;;0.32;;
19213;SDS011;9741;51.020;5.304;2023-06-24T11:23:42;0.20;;;0.20;;
19213;SDS011;9741;51.020;5.304;2023-06-24T11:26:10;0.30;;;0.30;;
19213;SDS011;9741;51.020;5.304;2023-06-24T11:28:37;1.38;;;0.50;;
19213;SDS011;9741;51.020;5.304;2023-06-24T11:31:07;0.43;;;0.43;;
19213;SDS011;9741;51.020;5.304;2023-06-24T11:33:35;0.50;;;0.50;;
19213;SDS011;9741;51.020;5.304;2023-06-24T11:36:08;1.35;;;0.77;;
19213;SDS011;9741;51.020;5.304;2023-06-24T11:38:36;0.70;;;0.38;;
19213;SDS011;9741;51.020;5.304;2023-06-24T11:41:04;0.93;;;0.43;;
19213;SDS011;9741;51.020;5.304;2023-06-24T11:43:31;1.33;;;0.80;;
19213;SDS011;9741;51.020;5.304;2023-06-24T11:45:59;2.25;;;1.10;;
19213;SDS011;9741;51.020;5.304;2023-06-24T11:48:27;0.60;;;0.60;;
19213;SDS011;9741;51.020;5.304;2023-06-24T11:50:54;0.30;;;0.20;;
19213;SDS011;9741;51.020;5.304;2023-06-24T11:53:22;0.55;;;0.52;;
19213;SDS011;9741;51.020;5.304;2023-06-24T11:55:57;0.85;;;0.63;;
19213;SDS011;9741;51.020;5.304;2023-06-24T11:58:25;0.95;;;0.52;;
19213;SDS011;9741;51.020;5.304;2023-06-24T12:00:52;0.55;;;0.50;;
19213;SDS011;9741;51.020;5.304;2023-06-24T12:03:22;0.75;;;0.70;;
19213;SDS011;9741;51.020;5.304;2023-06-24T12:05:50;0.57;;;0.40;;
19213;SDS011;9741;51.020;5.304;2023-06-24T12:08:17;0.90;;;0.63;;
19213;SDS011;9741;51.020;5.304;2023-06-24T12:10:45;2.30;;;0.57;;
19213;SDS011;9741;51.020;5.304;2023-06-24T12:13:12;0.40;;;0.40;;
19213;SDS011;9741;51.020;5.304;2023-06-24T12:15:41;1.65;;;0.82;;
19213;SDS011;9741;51.020;5.304;2023-06-24T12:18:08;0.95;;;0.63;;
19213;SDS011;9741;51.020;5.304;2023-06-24T12:20:36;0.50;;;0.20;;
19213;SDS011;9741;51.020;5.304;2023-06-24T12:23:03;1.05;;;0.75;;
19213;SDS011;9741;51.020;5.304;2023-06-24T12:25:30;1.13;;;0.60;;
19213;SDS011;9741;51.020;5.304;2023-06-24T12:27:57;0.50;;;0.32;;
19213;SDS011;9741;51.020;5.304;2023-06-24T12:30:25;0.50;;;0.50;;
19213;SDS011;9741;51.020;5.304;2023-06-24T12:32:54;0.85;;;0.52;;
19213;SDS011;9741;51.020;5.304;2023-06-24T12:35:21;1.00;;;0.63;;
19213;SDS011;9741;51.020;5.304;2023-06-24T12:37:50;0.82;;;0.60;;
19213;SDS011;9741;51.020;5.304;2023-06-24T12:40:17;0.93;;;0.70;;
19213;SDS011;9741;51.020;5.304;2023-06-24T12:42:45;0.55;;;0.47;;
19213;SDS011;9741;51.020;5.304;2023-06-24T12:45:12;1.10;;;1.02;;
19213;SDS011;9741;51.020;5.304;2023-06-24T12:47:39;0.55;;;0.50;;
19213;SDS011;9741;51.020;5.304;2023-06-24T12:50:09;0.65;;;0.55;;
19213;SDS011;9741;51.020;5.304;2023-06-24T12:52:39;0.70;;;0.65;;
19213;SDS011;9741;51.020;5.304;2023-06-24T12:55:06;0.50;;;0.50;;
19213;SDS011;9741;51.020;5.304;2023-06-24T12:57:34;0.88;;;0.57;;
19213;SDS011;9741;51.020;5.304;2023-06-24T13:00:02;1.65;;;0.60;;
19213;SDS011;9741;51.020;5.304;2023-06-24T13:02:30;0.50;;;0.50;;
19213;SDS011;9741;51.020;5.304;2023-06-24T13:04:57;0.50;;;0.50;;
19213;SDS011;9741;51.020;5.304;2023-06-24T13:07:25;1.15;;;0.80;;
19213;SDS011;9741;51.020;5.304;2023-06-24T13:09:52;0.52;;;0.52;;
19213;SDS011;9741;51.020;5.304;2023-06-24T13:12:20;0.85;;;0.30;;
19213;SDS011;9741;51.020;5.304;2023-06-24T13:14:47;0.57;;;0.40;;
19213;SDS011;9741;51.020;5.304;2023-06-24T13:17:15;0.85;;;0.60;;
19213;SDS011;9741;51.020;5.304;2023-06-24T13:19:42;0.65;;;0.50;;
19213;SDS011;9741;51.020;5.304;2023-06-24T13:22:09;1.23;;;0.85;;
19213;SDS011;9741;51.020;5.304;2023-06-24T13:24:38;0.70;;;0.60;;
19213;SDS011;9741;51.020;5.304;2023-06-24T13:27:06;1.48;;;0.70;;
19213;SDS011;9741;51.020;5.304;2023-06-24T13:29:33;0.47;;;0.40;;
19213;SDS011;9741;51.020;5.304;2023-06-24T13:32:01;1.50;;;0.70;;
19213;SDS011;9741;51.020;5.304;2023-06-24T13:34:28;0.82;;;0.50;;
19213;SDS011;9741;51.020;5.304;2023-06-24T13:36:56;0.38;;;0.38;;
19213;SDS011;9741;51.020;5.304;2023-06-24T13:39:24;0.50;;;0.50;;
19213;SDS011;9741;51.020;5.304;2023-06-24T13:41:54;0.50;;;0.47;;
19213;SDS011;9741;51.020;5.304;2023-06-24T13:44:22;1.52;;;0.65;;
19213;SDS011;9741;51.020;5.304;2023-06-24T13:46:52;2.28;;;1.02;;
19213;SDS011;9741;51.020;5.304;2023-06-24T13:49:19;0.98;;;0.60;;
19213;SDS011;9741;51.020;5.304;2023-06-24T13:51:46;1.02;;;0.50;;
19213;SDS011;9741;51.020;5.304;2023-06-24T13:54:14;0.38;;;0.38;;
19213;SDS011;9741;51.020;5.304;2023-06-24T13:56:41;0.25;;;0.25;;
19213;SDS011;9741;51.020;5.304;2023-06-24T13:59:09;0.25;;;0.25;;
19213;SDS011;9741;51.020;5.304;2023-06-24T14:01:37;0.93;;;0.50;;
19213;SDS011;9741;51.020;5.304;2023-06-24T14:04:04;0.70;;;0.45;;
19213;SDS011;9741;51.020;5.304;2023-06-24T14:06:31;0.63;;;0.52;;
19213;SDS011;9741;51.020;5.304;2023-06-24T14:08:59;0.65;;;0.60;;
19213;SDS011;9741;51.020;5.304;2023-06-24T14:11:26;0.38;;;0.38;;
19213;SDS011;9741;51.020;5.304;2023-06-24T14:13:53;0.57;;;0.50;;
19213;SDS011;9741;51.020;5.304;2023-06-24T14:16:22;1.45;;;0.60;;
19213;SDS011;9741;51.020;5.304;2023-06-24T14:18:49;0.35;;;0.35;;
19213;SDS011;9741;51.020;5.304;2023-06-24T14:21:17;1.10;;;0.68;;
19213;SDS011;9741;51.020;5.304;2023-06-24T14:23:44;0.43;;;0.43;;
19213;SDS011;9741;51.020;5.304;2023-06-24T14:26:11;0.77;;;0.47;;
19213;SDS011;9741;51.020;5.304;2023-06-24T14:28:42;0.50;;;0.50;;
19213;SDS011;9741;51.020;5.304;2023-06-24T14:31:09;0.20;;;0.20;;
19213;SDS011;9741;51.020;5.304;2023-06-24T14:33:37;1.52;;;0.75;;
19213;SDS011;9741;51.020;5.304;2023-06-24T14:36:05;1.08;;;0.50;;
19213;SDS011;9741;51.020;5.304;2023-06-24T14:38:32;0.43;;;0.40;;
19213;SDS011;9741;51.020;5.304;2023-06-24T14:40:59;0.30;;;0.30;;
19213;SDS011;9741;51.020;5.304;2023-06-24T14:43:26;1.77;;;0.60;;
19213;SDS011;9741;51.020;5.304;2023-06-24T14:45:53;0.93;;;0.73;;
19213;SDS011;9741;51.020;5.304;2023-06-24T14:48:22;0.52;;;0.50;;
19213;SDS011;9741;51.020;5.304;2023-06-24T14:50:51;0.35;;;0.35;;
19213;SDS011;9741;51.020;5.304;2023-06-24T14:53:18;2.00;;;0.90;;
19213;SDS011;9741;51.020;5.304;2023-06-24T14:55:46;0.55;;;0.55;;
19213;SDS011;9741;51.020;5.304;2023-06-24T14:58:13;1.23;;;0.80;;
19213;SDS011;9741;51.020;5.304;2023-06-24T15:00:40;0.47;;;0.32;;
19213;SDS011;9741;51.020;5.304;2023-06-24T15:03:07;0.68;;;0.55;;
19213;SDS011;9741;51.020;5.304;2023-06-24T15:05:34;0.60;;;0.55;;
19213;SDS011;9741;51.020;5.304;2023-06-24T15:08:03;0.90;;;0.63;;
19213;SDS011;9741;51.020;5.304;2023-06-24T15:10:30;0.40;;;0.40;;